sensor_id;sensor_type;location;lat;lon;timestamp;pressure;altitude;pressure_sealevel;temperature;humidity
40730;BME280;26418;50.070;8.436;2022-12-31T00:01:28;99431.78;;;10.89;100.00
40730;BME280;26418;50.070;8.436;2022-12-31T00:03:54;99426.06;;;10.90;100.00
40730;BME280;26418;50.070;8.436;2022-12-31T00:06:26;99430.34;;;10.91;100.00
40730;BME280;26418;50.070;8.436;2022-12-31T00:08:54;99423.84;;;10.92;100.00
40730;BME280;26418;50.070;8.436;2022-12-31T00:11:21;99428.13;;;10.93;100.00
40730;BME280;26418;50.070;8.436;2022-12-31T00:13:47;99422.06;;;10.96;100.00
40730;BME280;26418;50.070;8.436;2022-12-31T00:16:24;99417.00;;;10.95;100.00
40730;BME280;26418;50.070;8.436;2022-12-31T00:18:52;99406.66;;;10.97;100.00
40730;BME280;26418;50.070;8.436;2022-12-31T00:21:19;99416.66;;;10.96;100.00
40730;BME280;26418;50.070;8.436;2022-12-31T00:23:45;99424.00;;;10.96;100.00
40730;BME280;26418;50.070;8.436;2022-12-31T00:26:14;99421.78;;;10.98;100.00
40730;BME280;26418;50.070;8.436;2022-12-31T00:28:41;99417.16;;;10.98;100.00
40730;BME280;26418;50.070;8.436;2022-12-31T00:31:15;99419.06;;;10.98;100.00
40730;BME280;26418;50.070;8.436;2022-12-31T00:33:41;99418.75;;;10.99;100.00
40730;BME280;26418;50.070;8.436;2022-12-31T00:36:17;99426.25;;;11.03;100.00
40730;BME280;26418;50.070;8.436;2022-12-31T00:38:45;99424.81;;;11.05;100.00
40730;BME280;26418;50.070;8.436;2022-12-31T00:41:12;99424.34;;;11.03;100.00
40730;BME280;26418;50.070;8.436;2022-12-31T00:43:38;99426.09;;;11.08;100.00
40730;BME280;26418;50.070;8.436;2022-12-31T00:46:04;99427.69;;;11.09;100.00
40730;BME280;26418;50.070;8.436;2022-12-31T00:48:31;99429.78;;;11.12;100.00
40730;BME280;26418;50.070;8.436;2022-12-31T00:50:56;99437.56;;;11.13;100.00
40730;BME280;26418;50.070;8.436;2022-12-31T00:53:22;99435.19;;;11.12;100.00
40730;BME280;26418;50.070;8.436;2022-12-31T00:55:48;99440.75;;;11.15;100.00
40730;BME280;26418;50.070;8.436;2022-12-31T00:58:13;99435.03;;;11.17;100.00
40730;BME280;26418;50.070;8.436;2022-12-31T01:00:39;99441.38;;;11.21;100.00
40730;BME280;26418;50.070;8.436;2022-12-31T01:03:05;99448.09;;;11.24;100.00
40730;BME280;26418;50.070;8.436;2022-12-31T01:05:32;99452.88;;;11.27;100.00
40730;BME280;26418;50.070;8.436;2022-12-31T01:07:58;99454.94;;;11.30;100.00
40730;BME280;26418;50.070;8.436;2022-12-31T01:10:23;99462.44;;;11.33;100.00
40730;BME280;26418;50.070;8.436;2022-12-31T01:13:08;99456.06;;;11.38;100.00
40730;BME280;26418;50.070;8.436;2022-12-31T01:15:35;99462.44;;;11.42;100.00
40730;BME280;26418;50.070;8.436;2022-12-31T01:18:02;99470.72;;;11.45;100.00
40730;BME280;26418;50.070;8.436;2022-12-31T01:20:28;99468.50;;;11.47;100.00
40730;BME280;26418;50.070;8.436;2022-12-31T01:22:54;99463.88;;;11.48;100.00
40730;BME280;26418;50.070;8.436;2022-12-31T01:25:19;99475.69;;;11.52;100.00
40730;BME280;26418;50.070;8.436;2022-12-31T01:27:45;99478.56;;;11.56;100.00
40730;BME280;26418;50.070;8.436;2022-12-31T01:30:11;99481.75;;;11.58;100.00
40730;BME280;26418;50.070;8.436;2022-12-31T01:32:36;99491.16;;;11.60;100.00
40730;BME280;26418;50.070;8.436;2022-12-31T01:35:02;99481.75;;;11.67;100.00
40730;BME280;26418;50.070;8.436;2022-12-31T01:37:27;99479.66;;;11.63;100.00
40730;BME280;26418;50.070;8.436;2022-12-31T01:39:53;99480.94;;;11.75;100.00
40730;BME280;26418;50.070;8.436;2022-12-31T01:42:18;99481.09;;;11.78;100.00
40730;BME280;26418;50.070;8.436;2022-12-31T01:44:48;99482.38;;;11.81;100.00
40730;BME280;26418;50.070;8.436;2022-12-31T01:47:23;99475.06;;;11.82;100.00
40730;BME280;26418;50.070;8.436;2022-12-31T01:49:56;99477.91;;;11.85;100.00
40730;BME280;26418;50.070;8.436;2022-12-31T01:52:36;99472.03;;;11.92;100.00
40730;BME280;26418;50.070;8.436;2022-12-31T01:55:24;99472.66;;;11.98;100.00
40730;BME280;26418;50.070;8.436;2022-12-31T01:57:56;99474.41;;;12.02;100.00
40730;BME280;26418;50.070;8.436;2022-12-31T02:00:23;99480.94;;;12.10;100.00
40730;BME280;26418;50.070;8.436;2022-12-31T02:02:49;99474.09;;;12.13;100.00
40730;BME280;26418;50.070;8.436;2022-12-31T02:06:07;99477.44;;;12.18;100.00
40730;BME280;26418;50.070;8.436;2022-12-31T02:08:08;99469.78;;;12.20;100.00
40730;BME280;26418;50.070;8.436;2022-12-31T02:10:34;99465.63;;;12.23;100.00
40730;BME280;26418;50.070;8.436;2022-12-31T02:13:00;99465.63;;;12.23;100.00
40730;BME280;26418;50.070;8.436;2022-12-31T02:20:56;99471.00;;;12.32;100.00
40730;BME280;26418;50.070;8.436;2022-12-31T02:26:36;99467.38;;;12.27;100.00
40730;BME280;26418;50.070;8.436;2022-12-31T02:31:46;99479.47;;;12.30;100.00
40730;BME280;26418;50.070;8.436;2022-12-31T02:34:26;99475.66;;;12.31;100.00
40730;BME280;26418;50.070;8.436;2022-12-31T02:36:55;99465.72;;;12.35;100.00
40730;BME280;26418;50.070;8.436;2022-12-31T02:39:23;99466.53;;;12.36;100.00
40730;BME280;26418;50.070;8.436;2022-12-31T02:41:49;99463.34;;;12.34;100.00
40730;BME280;26418;50.070;8.436;2022-12-31T02:44:28;99464.94;;;12.35;100.00
40730;BME280;26418;50.070;8.436;2022-12-31T03:00:19;99494.59;;;12.49;100.00
40730;BME280;26418;50.070;8.436;2022-12-31T03:03:04;99493.47;;;12.50;100.00
40730;BME280;26418;50.070;8.436;2022-12-31T03:05:36;99495.03;;;12.51;100.00
40730;BME280;26418;50.070;8.436;2022-12-31T03:08:04;99496.97;;;12.50;100.00
40730;BME280;26418;50.070;8.436;2022-12-31T03:10:30;99488.84;;;12.50;100.00
40730;BME280;26418;50.070;8.436;2022-12-31T03:12:56;99487.25;;;12.49;100.00
40730;BME280;26418;50.070;8.436;2022-12-31T03:15:33;99482.44;;;12.55;100.00
40730;BME280;26418;50.070;8.436;2022-12-31T03:18:00;99483.22;;;12.55;100.00
40730;BME280;26418;50.070;8.436;2022-12-31T03:20:37;99498.38;;;12.56;100.00
40730;BME280;26418;50.070;8.436;2022-12-31T03:23:27;99487.53;;;12.56;100.00
40730;BME280;26418;50.070;8.436;2022-12-31T03:25:53;99495.66;;;12.56;99.79
40730;BME280;26418;50.070;8.436;2022-12-31T03:28:22;99498.06;;;12.58;99.32
40730;BME280;26418;50.070;8.436;2022-12-31T03:30:51;99488.00;;;12.58;99.49
40730;BME280;26418;50.070;8.436;2022-12-31T03:33:17;99493.78;;;12.57;99.53
40730;BME280;26418;50.070;8.436;2022-12-31T03:35:44;99494.88;;;12.56;99.63
40730;BME280;26418;50.070;8.436;2022-12-31T03:38:10;99502.22;;;12.55;99.63
40730;BME280;26418;50.070;8.436;2022-12-31T03:40:43;99496.47;;;12.57;99.62
40730;BME280;26418;50.070;8.436;2022-12-31T03:45:55;99487.06;;;12.54;99.10
40730;BME280;26418;50.070;8.436;2022-12-31T03:48:24;99499.63;;;12.68;99.25
40730;BME280;26418;50.070;8.436;2022-12-31T03:50:49;99506.50;;;12.65;98.89
40730;BME280;26418;50.070;8.436;2022-12-31T03:53:16;99509.38;;;12.69;98.91
40730;BME280;26418;50.070;8.436;2022-12-31T03:55:41;99509.03;;;12.70;98.65
40730;BME280;26418;50.070;8.436;2022-12-31T03:58:07;99512.56;;;12.71;98.88
40730;BME280;26418;50.070;8.436;2022-12-31T04:00:33;99520.69;;;12.71;98.67
40730;BME280;26418;50.070;8.436;2022-12-31T04:02:58;99521.47;;;12.71;99.37
40730;BME280;26418;50.070;8.436;2022-12-31T04:05:24;99521.16;;;12.73;98.73
40730;BME280;26418;50.070;8.436;2022-12-31T04:07:49;99519.09;;;12.70;99.27
40730;BME280;26418;50.070;8.436;2022-12-31T04:10:17;99523.06;;;12.72;99.21
40730;BME280;26418;50.070;8.436;2022-12-31T04:12:43;99532.00;;;12.73;99.42
40730;BME280;26418;50.070;8.436;2022-12-31T04:15:10;99546.03;;;12.75;99.33
40730;BME280;26418;50.070;8.436;2022-12-31T04:17:39;99530.09;;;12.73;99.54
40730;BME280;26418;50.070;8.436;2022-12-31T04:20:05;99544.16;;;12.76;99.59
40730;BME280;26418;50.070;8.436;2022-12-31T04:22:31;99545.72;;;12.77;99.48
40730;BME280;26418;50.070;8.436;2022-12-31T04:24:57;99551.47;;;12.75;99.84
40730;BME280;26418;50.070;8.436;2022-12-31T04:27:22;99544.44;;;12.74;100.00
40730;BME280;26418;50.070;8.436;2022-12-31T04:29:48;99538.53;;;12.72;100.00
40730;BME280;26418;50.070;8.436;2022-12-31T04:32:13;99544.31;;;12.70;99.73
40730;BME280;26418;50.070;8.436;2022-12-31T04:34:39;99554.81;;;12.72;100.00
40730;BME280;26418;50.070;8.436;2022-12-31T04:37:04;99546.22;;;12.70;99.87
40730;BME280;26418;50.070;8.436;2022-12-31T04:39:30;99553.88;;;12.68;99.89
40730;BME280;26418;50.070;8.436;2022-12-31T04:41:55;99556.28;;;12.69;99.72
40730;BME280;26418;50.070;8.436;2022-12-31T04:44:21;99558.34;;;12.72;99.49
40730;BME280;26418;50.070;8.436;2022-12-31T04:46:47;99555.97;;;12.71;99.37
40730;BME280;26418;50.070;8.436;2022-12-31T04:49:13;99558.03;;;12.74;99.11
40730;BME280;26418;50.070;8.436;2022-12-31T04:51:38;99552.44;;;12.79;98.73
40730;BME280;26418;50.070;8.436;2022-12-31T04:54:04;99552.88;;;12.81;98.56
40730;BME280;26418;50.070;8.436;2022-12-31T04:56:30;99551.28;;;12.80;98.56
40730;BME280;26418;50.070;8.436;2022-12-31T04:58:57;99555.59;;;12.81;98.41
40730;BME280;26418;50.070;8.436;2022-12-31T05:01:23;99560.25;;;12.81;98.71
40730;BME280;26418;50.070;8.436;2022-12-31T05:03:49;99564.84;;;12.80;98.46
40730;BME280;26418;50.070;8.436;2022-12-31T05:06:18;99571.09;;;12.81;98.37
40730;BME280;26418;50.070;8.436;2022-12-31T05:08:45;99567.13;;;12.78;98.09
40730;BME280;26418;50.070;8.436;2022-12-31T05:11:10;99575.56;;;12.85;98.08
40730;BME280;26418;50.070;8.436;2022-12-31T05:13:36;99582.56;;;12.86;97.80
40730;BME280;26418;50.070;8.436;2022-12-31T05:16:03;99585.59;;;12.85;97.78
40730;BME280;26418;50.070;8.436;2022-12-31T05:18:30;99579.53;;;12.88;97.85
40730;BME280;26418;50.070;8.436;2022-12-31T05:20:56;99579.53;;;12.88;97.84
40730;BME280;26418;50.070;8.436;2022-12-31T05:23:22;99583.03;;;12.88;97.90
40730;BME280;26418;50.070;8.436;2022-12-31T05:25:48;99578.56;;;12.93;97.68
40730;BME280;26418;50.070;8.436;2022-12-31T05:28:15;99579.34;;;12.93;97.75
40730;BME280;26418;50.070;8.436;2022-12-31T05:30:41;99592.75;;;12.98;97.51
40730;BME280;26418;50.070;8.436;2022-12-31T05:33:07;99595.28;;;13.03;97.45
40730;BME280;26418;50.070;8.436;2022-12-31T05:35:33;99578.22;;;13.03;97.49
40730;BME280;26418;50.070;8.436;2022-12-31T05:37:59;99589.56;;;13.05;97.28
40730;BME280;26418;50.070;8.436;2022-12-31T05:40:26;99583.66;;;13.03;97.62
40730;BME280;26418;50.070;8.436;2022-12-31T05:42:51;99571.81;;;13.08;97.37
40730;BME280;26418;50.070;8.436;2022-12-31T05:45:17;99571.00;;;13.07;97.27
40730;BME280;26418;50.070;8.436;2022-12-31T05:47:43;99579.63;;;13.09;97.23
40730;BME280;26418;50.070;8.436;2022-12-31T05:50:11;99574.19;;;13.09;97.45
40730;BME280;26418;50.070;8.436;2022-12-31T05:52:37;99574.34;;;13.13;97.39
40730;BME280;26418;50.070;8.436;2022-12-31T05:55:03;99580.09;;;13.11;97.34
40730;BME280;26418;50.070;8.436;2022-12-31T05:57:29;99578.50;;;13.10;97.35
40730;BME280;26418;50.070;8.436;2022-12-31T05:59:55;99565.13;;;13.05;97.48
40730;BME280;26418;50.070;8.436;2022-12-31T06:02:21;99578.69;;;13.05;97.51
40730;BME280;26418;50.070;8.436;2022-12-31T06:04:47;99573.56;;;13.03;97.36
40730;BME280;26418;50.070;8.436;2022-12-31T06:07:13;99597.22;;;13.03;97.45
40730;BME280;26418;50.070;8.436;2022-12-31T06:09:39;99599.94;;;13.03;97.50
40730;BME280;26418;50.070;8.436;2022-12-31T06:12:05;99594.16;;;13.04;97.49
40730;BME280;26418;50.070;8.436;2022-12-31T06:14:31;99595.28;;;13.03;97.68
40730;BME280;26418;50.070;8.436;2022-12-31T06:16:56;99601.81;;;13.11;97.09
40730;BME280;26418;50.070;8.436;2022-12-31T06:19:22;99599.88;;;13.12;96.97
40730;BME280;26418;50.070;8.436;2022-12-31T06:21:48;99601.16;;;13.14;96.58
40730;BME280;26418;50.070;8.436;2022-12-31T06:24:13;99603.88;;;13.14;96.77
40730;BME280;26418;50.070;8.436;2022-12-31T06:26:39;99595.56;;;13.19;96.29
40730;BME280;26418;50.070;8.436;2022-12-31T06:29:04;99604.19;;;13.21;95.92
40730;BME280;26418;50.070;8.436;2022-12-31T06:31:30;99598.09;;;13.25;95.83
40730;BME280;26418;50.070;8.436;2022-12-31T06:33:56;99596.19;;;13.25;95.47
40730;BME280;26418;50.070;8.436;2022-12-31T06:36:21;99600.94;;;13.28;95.55
40730;BME280;26418;50.070;8.436;2022-12-31T06:38:47;99615.47;;;13.32;95.19
40730;BME280;26418;50.070;8.436;2022-12-31T06:41:14;99616.25;;;13.33;94.88
40730;BME280;26418;50.070;8.436;2022-12-31T06:43:40;99622.94;;;13.35;95.00
40730;BME280;26418;50.070;8.436;2022-12-31T06:46:08;99623.13;;;13.39;94.52
40730;BME280;26418;50.070;8.436;2022-12-31T06:48:34;99619.44;;;13.35;94.45
40730;BME280;26418;50.070;8.436;2022-12-31T06:51:04;99623.13;;;13.39;94.17
40730;BME280;26418;50.070;8.436;2022-12-31T06:53:30;99620.09;;;13.41;94.39
40730;BME280;26418;50.070;8.436;2022-12-31T06:55:56;99618.16;;;13.41;94.01
40730;BME280;26418;50.070;8.436;2022-12-31T06:58:22;99604.09;;;13.39;93.82
40730;BME280;26418;50.070;8.436;2022-12-31T07:01:07;99615.59;;;13.45;94.07
40730;BME280;26418;50.070;8.436;2022-12-31T07:03:55;99614.34;;;13.42;93.78
40730;BME280;26418;50.070;8.436;2022-12-31T07:06:53;99623.44;;;13.46;94.01
40730;BME280;26418;50.070;8.436;2022-12-31T07:12:47;99627.28;;;13.45;94.14
40730;BME280;26418;50.070;8.436;2022-12-31T07:20:17;99634.44;;;13.50;93.44
40730;BME280;26418;50.070;8.436;2022-12-31T07:22:44;99648.66;;;13.56;93.55
40730;BME280;26418;50.070;8.436;2022-12-31T07:25:15;99648.16;;;13.54;93.34
40730;BME280;26418;50.070;8.436;2022-12-31T07:30:22;99643.22;;;13.56;93.26
40730;BME280;26418;50.070;8.436;2022-12-31T07:41:47;99653.75;;;13.57;93.26
40730;BME280;26418;50.070;8.436;2022-12-31T07:47:22;99661.13;;;13.48;93.44
40730;BME280;26418;50.070;8.436;2022-12-31T07:49:48;99647.22;;;13.49;92.93
40730;BME280;26418;50.070;8.436;2022-12-31T07:52:15;99664.00;;;13.51;92.81
40730;BME280;26418;50.070;8.436;2022-12-31T07:54:41;99647.69;;;13.51;92.53
40730;BME280;26418;50.070;8.436;2022-12-31T07:57:08;99670.53;;;13.59;91.99
40730;BME280;26418;50.070;8.436;2022-12-31T08:08:04;99679.25;;;13.65;91.45
40730;BME280;26418;50.070;8.436;2022-12-31T08:13:07;99688.09;;;13.62;91.39
40730;BME280;26418;50.070;8.436;2022-12-31T08:15:36;99684.75;;;13.56;91.48
40730;BME280;26418;50.070;8.436;2022-12-31T08:18:02;99691.44;;;13.59;91.36
40730;BME280;26418;50.070;8.436;2022-12-31T08:20:29;99702.94;;;13.64;91.10
40730;BME280;26418;50.070;8.436;2022-12-31T08:23:24;99701.34;;;13.63;90.60
40730;BME280;26418;50.070;8.436;2022-12-31T08:26:10;99715.22;;;13.71;90.11
40730;BME280;26418;50.070;8.436;2022-12-31T08:31:27;99720.16;;;13.68;89.81
40730;BME280;26418;50.070;8.436;2022-12-31T08:36:59;99736.19;;;13.70;89.68
40730;BME280;26418;50.070;8.436;2022-12-31T08:39:44;99731.53;;;13.71;89.60
40730;BME280;26418;50.070;8.436;2022-12-31T08:45:16;99732.97;;;13.68;89.65
40730;BME280;26418;50.070;8.436;2022-12-31T08:50:27;99729.91;;;13.70;89.75
40730;BME280;26418;50.070;8.436;2022-12-31T08:52:54;99731.38;;;13.67;89.64
40730;BME280;26418;50.070;8.436;2022-12-31T08:55:19;99725.94;;;13.67;89.51
40730;BME280;26418;50.070;8.436;2022-12-31T09:00:34;99732.97;;;13.68;89.69
40730;BME280;26418;50.070;8.436;2022-12-31T09:17:03;99752.47;;;14.09;86.78
40730;BME280;26418;50.070;8.436;2022-12-31T09:19:33;99736.81;;;14.06;86.43
40730;BME280;26418;50.070;8.436;2022-12-31T09:21:59;99750.69;;;14.13;85.86
40730;BME280;26418;50.070;8.436;2022-12-31T09:24:25;99766.16;;;14.21;85.52
40730;BME280;26418;50.070;8.436;2022-12-31T09:27:00;99767.88;;;14.26;85.08
40730;BME280;26418;50.070;8.436;2022-12-31T09:29:40;99759.94;;;14.21;85.11
40730;BME280;26418;50.070;8.436;2022-12-31T09:35:11;99773.75;;;14.07;85.82
40730;BME280;26418;50.070;8.436;2022-12-31T09:37:48;99785.28;;;14.04;85.80
40730;BME280;26418;50.070;8.436;2022-12-31T09:43:11;99783.03;;;14.06;86.07
40730;BME280;26418;50.070;8.436;2022-12-31T09:52:07;99783.78;;;14.15;85.60
40730;BME280;26418;50.070;8.436;2022-12-31T10:00:03;99782.16;;;14.23;84.98
40730;BME280;26418;50.070;8.436;2022-12-31T10:05:41;99797.06;;;14.46;84.49
40730;BME280;26418;50.070;8.436;2022-12-31T10:13:53;99801.38;;;14.77;82.52
40730;BME280;26418;50.070;8.436;2022-12-31T10:24:48;99811.47;;;14.98;81.06
40730;BME280;26418;50.070;8.436;2022-12-31T10:30:17;99818.50;;;14.99;80.71
40730;BME280;26418;50.070;8.436;2022-12-31T10:35:48;99801.25;;;14.95;80.85
40730;BME280;26418;50.070;8.436;2022-12-31T10:44:20;99799.28;;;15.17;79.18
40730;BME280;26418;50.070;8.436;2022-12-31T11:15:15;99805.81;;;15.37;76.96
40730;BME280;26418;50.070;8.436;2022-12-31T11:32:16;99798.38;;;15.46;76.23
40730;BME280;26418;50.070;8.436;2022-12-31T11:37:53;99800.19;;;15.54;76.17
40730;BME280;26418;50.070;8.436;2022-12-31T11:40:50;99807.84;;;15.61;75.21
40730;BME280;26418;50.070;8.436;2022-12-31T11:56:30;99782.53;;;15.73;73.94
40730;BME280;26418;50.070;8.436;2022-12-31T11:58:58;99776.41;;;15.76;73.71
40730;BME280;26418;50.070;8.436;2022-12-31T12:04:09;99778.38;;;15.88;73.53
40730;BME280;26418;50.070;8.436;2022-12-31T12:06:35;99783.28;;;15.95;73.19
40730;BME280;26418;50.070;8.436;2022-12-31T12:09:09;99780.56;;;15.95;72.95
40730;BME280;26418;50.070;8.436;2022-12-31T12:11:39;99768.59;;;15.99;72.74
40730;BME280;26418;50.070;8.436;2022-12-31T12:14:31;99770.78;;;15.94;72.39
40730;BME280;26418;50.070;8.436;2022-12-31T12:16:58;99774.75;;;15.96;72.54
40730;BME280;26418;50.070;8.436;2022-12-31T12:19:28;99768.94;;;15.98;72.54
40730;BME280;26418;50.070;8.436;2022-12-31T12:21:55;99770.53;;;15.99;72.36
40730;BME280;26418;50.070;8.436;2022-12-31T12:24:28;99759.97;;;15.97;72.49
40730;BME280;26418;50.070;8.436;2022-12-31T12:26:55;99752.81;;;16.05;72.00
40730;BME280;26418;50.070;8.436;2022-12-31T12:29:33;99755.09;;;16.03;71.41
40730;BME280;26418;50.070;8.436;2022-12-31T12:32:02;99760.19;;;16.05;71.46
40730;BME280;26418;50.070;8.436;2022-12-31T12:34:31;99749.28;;;16.05;71.90
40730;BME280;26418;50.070;8.436;2022-12-31T12:36:57;99750.56;;;15.95;71.59
40730;BME280;26418;50.070;8.436;2022-12-31T12:39:26;99755.31;;;15.98;71.45
40730;BME280;26418;50.070;8.436;2022-12-31T12:44:25;99764.84;;;15.92;71.61
40730;BME280;26418;50.070;8.436;2022-12-31T12:46:51;99747.66;;;15.79;72.09
40730;BME280;26418;50.070;8.436;2022-12-31T12:49:30;99751.97;;;15.80;72.10
40730;BME280;26418;50.070;8.436;2022-12-31T13:00:37;99768.78;;;15.69;71.79
40730;BME280;26418;50.070;8.436;2022-12-31T13:06:38;99769.44;;;15.66;71.35
40730;BME280;26418;50.070;8.436;2022-12-31T13:15:02;99770.22;;;15.54;71.46
40730;BME280;26418;50.070;8.436;2022-12-31T13:22:59;99768.63;;;15.53;71.54
40730;BME280;26418;50.070;8.436;2022-12-31T13:28:06;99767.19;;;15.56;71.74
40730;BME280;26418;50.070;8.436;2022-12-31T13:30:38;99755.56;;;15.59;71.09
40730;BME280;26418;50.070;8.436;2022-12-31T13:33:16;99740.34;;;15.58;71.43
40730;BME280;26418;50.070;8.436;2022-12-31T13:35:49;99744.91;;;15.54;71.32
40730;BME280;26418;50.070;8.436;2022-12-31T13:38:21;99752.28;;;15.53;71.61
40730;BME280;26418;50.070;8.436;2022-12-31T13:40:50;99752.72;;;15.55;71.69
40730;BME280;26418;50.070;8.436;2022-12-31T13:43:26;99737.97;;;15.56;71.75
40730;BME280;26418;50.070;8.436;2022-12-31T13:48:39;99730.16;;;15.55;72.11
40730;BME280;26418;50.070;8.436;2022-12-31T13:51:14;99737.75;;;15.49;72.23
40730;BME280;26418;50.070;8.436;2022-12-31T13:54:27;99736.94;;;15.49;72.52
40730;BME280;26418;50.070;8.436;2022-12-31T13:56:43;99735.09;;;15.40;72.63
40730;BME280;26418;50.070;8.436;2022-12-31T13:59:20;99731.34;;;15.33;73.03
40730;BME280;26418;50.070;8.436;2022-12-31T14:04:46;99757.00;;;15.32;73.66
40730;BME280;26418;50.070;8.436;2022-12-31T14:07:22;99756.09;;;15.28;73.88
40730;BME280;26418;50.070;8.436;2022-12-31T14:09:53;99762.41;;;15.19;74.04
40730;BME280;26418;50.070;8.436;2022-12-31T14:12:37;99758.75;;;15.15;73.95
40730;BME280;26418;50.070;8.436;2022-12-31T14:20:21;99765.56;;;15.09;73.22
40730;BME280;26418;50.070;8.436;2022-12-31T14:25:50;99776.63;;;15.04;73.25
40730;BME280;26418;50.070;8.436;2022-12-31T14:28:22;99772.00;;;15.04;72.52
40730;BME280;26418;50.070;8.436;2022-12-31T14:30:52;99774.25;;;15.02;72.54
40730;BME280;26418;50.070;8.436;2022-12-31T14:36:18;99775.25;;;14.98;72.25
40730;BME280;26418;50.070;8.436;2022-12-31T14:39:00;99769.03;;;14.97;71.98
40730;BME280;26418;50.070;8.436;2022-12-31T14:51:45;99783.69;;;14.84;72.08
40730;BME280;26418;50.070;8.436;2022-12-31T14:54:27;99776.88;;;14.77;72.33
40730;BME280;26418;50.070;8.436;2022-12-31T14:56:52;99780.25;;;14.74;72.28
40730;BME280;26418;50.070;8.436;2022-12-31T14:59:29;99791.34;;;14.69;72.33
40730;BME280;26418;50.070;8.436;2022-12-31T15:01:55;99802.56;;;14.68;72.47
40730;BME280;26418;50.070;8.436;2022-12-31T15:04:41;99797.44;;;14.66;72.24
40730;BME280;26418;50.070;8.436;2022-12-31T15:10:37;99804.38;;;14.55;73.44
40730;BME280;26418;50.070;8.436;2022-12-31T15:23:50;99798.94;;;14.25;73.82
40730;BME280;26418;50.070;8.436;2022-12-31T15:26:46;99801.00;;;14.28;73.69
40730;BME280;26418;50.070;8.436;2022-12-31T15:29:42;99809.63;;;14.30;73.49
40730;BME280;26418;50.070;8.436;2022-12-31T15:32:48;99812.38;;;14.30;73.35
40730;BME280;26418;50.070;8.436;2022-12-31T15:38:32;99803.94;;;14.14;73.78
40730;BME280;26418;50.070;8.436;2022-12-31T15:40:58;99817.41;;;14.10;74.10
40730;BME280;26418;50.070;8.436;2022-12-31T15:43:27;99810.22;;;14.06;74.21
40730;BME280;26418;50.070;8.436;2022-12-31T15:45:54;99805.75;;;14.01;74.28
40730;BME280;26418;50.070;8.436;2022-12-31T15:48:42;99813.91;;;14.01;74.31
40730;BME280;26418;50.070;8.436;2022-12-31T15:51:15;99807.84;;;13.95;74.19
40730;BME280;26418;50.070;8.436;2022-12-31T15:53:44;99807.41;;;13.93;74.43
40730;BME280;26418;50.070;8.436;2022-12-31T15:56:20;99817.00;;;13.91;74.53
40730;BME280;26418;50.070;8.436;2022-12-31T15:58:50;99814.59;;;13.89;74.65
40730;BME280;26418;50.070;8.436;2022-12-31T16:01:26;99823.88;;;13.88;74.92
40730;BME280;26418;50.070;8.436;2022-12-31T16:04:11;99835.25;;;13.81;74.95
40730;BME280;26418;50.070;8.436;2022-12-31T16:06:38;99832.72;;;13.76;75.13
40730;BME280;26418;50.070;8.436;2022-12-31T16:09:25;99823.94;;;13.71;75.25
40730;BME280;26418;50.070;8.436;2022-12-31T16:11:53;99822.34;;;13.61;75.78
40730;BME280;26418;50.070;8.436;2022-12-31T16:14:24;99814.38;;;13.56;75.84
40730;BME280;26418;50.070;8.436;2022-12-31T16:16:55;99826.22;;;13.51;76.20
40730;BME280;26418;50.070;8.436;2022-12-31T16:21:57;99827.34;;;13.41;76.65
40730;BME280;26418;50.070;8.436;2022-12-31T16:24:30;99817.09;;;13.38;76.82
40730;BME280;26418;50.070;8.436;2022-12-31T16:27:02;99820.44;;;13.35;76.90
40730;BME280;26418;50.070;8.436;2022-12-31T16:29:29;99820.94;;;13.28;77.29
40730;BME280;26418;50.070;8.436;2022-12-31T16:31:55;99831.34;;;13.26;77.39
40730;BME280;26418;50.070;8.436;2022-12-31T16:34:24;99825.25;;;13.20;77.64
40730;BME280;26418;50.070;8.436;2022-12-31T16:36:55;99828.13;;;13.15;77.93
40730;BME280;26418;50.070;8.436;2022-12-31T16:39:24;99826.69;;;13.09;78.06
40730;BME280;26418;50.070;8.436;2022-12-31T16:41:50;99829.41;;;13.00;78.29
40730;BME280;26418;50.070;8.436;2022-12-31T16:44:27;99834.97;;;12.95;78.45
40730;BME280;26418;50.070;8.436;2022-12-31T16:46:58;99839.47;;;12.91;78.35
40730;BME280;26418;50.070;8.436;2022-12-31T16:49:26;99841.69;;;12.89;78.53
40730;BME280;26418;50.070;8.436;2022-12-31T16:52:12;99831.47;;;12.86;78.44
40730;BME280;26418;50.070;8.436;2022-12-31T16:54:44;99831.13;;;12.79;78.74
40730;BME280;26418;50.070;8.436;2022-12-31T16:57:20;99818.53;;;12.74;78.88
40730;BME280;26418;50.070;8.436;2022-12-31T16:59:48;99823.94;;;12.74;78.47
40730;BME280;26418;50.070;8.436;2022-12-31T17:02:24;99829.22;;;12.70;78.88
40730;BME280;26418;50.070;8.436;2022-12-31T17:04:52;99828.25;;;12.66;78.48
40730;BME280;26418;50.070;8.436;2022-12-31T17:12:39;99823.00;;;12.70;78.21
40730;BME280;26418;50.070;8.436;2022-12-31T17:15:06;99828.44;;;12.70;78.01
40730;BME280;26418;50.070;8.436;2022-12-31T17:17:34;99824.91;;;12.69;78.07
40730;BME280;26418;50.070;8.436;2022-12-31T17:20:05;99814.38;;;12.68;78.05
40730;BME280;26418;50.070;8.436;2022-12-31T17:22:43;99829.69;;;12.72;77.73
40730;BME280;26418;50.070;8.436;2022-12-31T17:25:26;99816.47;;;12.71;77.28
40730;BME280;26418;50.070;8.436;2022-12-31T17:30:35;99828.44;;;12.70;77.45
40730;BME280;26418;50.070;8.436;2022-12-31T17:33:24;99826.50;;;12.70;77.26
40730;BME280;26418;50.070;8.436;2022-12-31T17:36:13;99819.78;;;12.68;77.00
40730;BME280;26418;50.070;8.436;2022-12-31T17:38:43;99828.09;;;12.71;76.79
40730;BME280;26418;50.070;8.436;2022-12-31T17:41:26;99816.28;;;12.67;76.92
40730;BME280;26418;50.070;8.436;2022-12-31T17:43:55;99826.00;;;12.68;77.03
40730;BME280;26418;50.070;8.436;2022-12-31T17:46:23;99829.88;;;12.67;76.58
40730;BME280;26418;50.070;8.436;2022-12-31T17:48:52;99827.59;;;12.69;76.45
40730;BME280;26418;50.070;8.436;2022-12-31T17:51:18;99826.50;;;12.70;76.33
40730;BME280;26418;50.070;8.436;2022-12-31T17:53:44;99826.00;;;12.68;76.32
40730;BME280;26418;50.070;8.436;2022-12-31T17:56:12;99835.91;;;12.73;75.83